sensor_id;sensor_type;location;lat;lon;timestamp;pressure;altitude;pressure_sealevel;temperature;humidity
79577;BME280;69045;48.136;11.386;2023-04-25T00:01:56;94701.00;;;12.12;55.83
79577;BME280;69045;48.136;11.386;2023-04-25T00:04:24;94701.78;;;12.12;55.65
79577;BME280;69045;48.136;11.386;2023-04-25T00:06:54;94705.47;;;12.11;55.68
79577;BME280;69045;48.136;11.386;2023-04-25T00:09:22;94704.19;;;12.14;56.27
79577;BME280;69045;48.136;11.386;2023-04-25T00:11:51;94700.53;;;12.15;55.55
79577;BME280;69045;48.136;11.386;2023-04-25T00:14:19;94706.09;;;12.18;55.56
79577;BME280;69045;48.136;11.386;2023-04-25T00:16:48;94701.88;;;12.17;55.64
79577;BME280;69045;48.136;11.386;2023-04-25T00:19:20;94703.47;;;12.18;55.21
79577;BME280;69045;48.136;11.386;2023-04-25T00:21:48;94711.91;;;12.20;55.42
79577;BME280;69045;48.136;11.386;2023-04-25T00:24:16;94708.25;;;12.21;55.92
79577;BME280;69045;48.136;11.386;2023-04-25T00:26:45;94698.81;;;12.25;55.13
79577;BME280;69045;48.136;11.386;2023-04-25T00:29:13;94706.94;;;12.24;55.21
79577;BME280;69045;48.136;11.386;2023-04-25T00:31:41;94699.31;;;12.22;55.68
79577;BME280;69045;48.136;11.386;2023-04-25T00:34:10;94700.38;;;12.21;55.48
79577;BME280;69045;48.136;11.386;2023-04-25T00:39:20;94697.38;;;12.13;55.14
79577;BME280;69045;48.136;11.386;2023-04-25T00:41:50;94698.06;;;12.08;56.20
79577;BME280;69045;48.136;11.386;2023-04-25T00:44:20;94703.09;;;12.10;56.04
79577;BME280;69045;48.136;11.386;2023-04-25T00:46:48;94694.66;;;12.08;55.98
79577;BME280;69045;48.136;11.386;2023-04-25T00:49:17;94684.63;;;12.05;55.66
79577;BME280;69045;48.136;11.386;2023-04-25T00:51:45;94684.06;;;12.02;56.20
79577;BME280;69045;48.136;11.386;2023-04-25T00:54:14;94680.66;;;12.02;55.77
79577;BME280;69045;48.136;11.386;2023-04-25T00:56:44;94681.94;;;11.99;55.77
79577;BME280;69045;48.136;11.386;2023-04-25T00:59:15;94689.25;;;11.97;55.91
79577;BME280;69045;48.136;11.386;2023-04-25T01:01:45;94689.50;;;11.96;56.30
79577;BME280;69045;48.136;11.386;2023-04-25T01:04:14;94683.44;;;11.95;56.07
79577;BME280;69045;48.136;11.386;2023-04-25T01:06:45;94699.75;;;11.97;56.29
79577;BME280;69045;48.136;11.386;2023-04-25T01:09:13;94690.19;;;11.91;56.75
79577;BME280;69045;48.136;11.386;2023-04-25T01:11:44;94685.69;;;11.87;56.58
79577;BME280;69045;48.136;11.386;2023-04-25T01:14:12;94684.31;;;11.84;56.38
79577;BME280;69045;48.136;11.386;2023-04-25T01:16:40;94685.25;;;11.78;57.37
79577;BME280;69045;48.136;11.386;2023-04-25T01:19:10;94682.06;;;11.76;56.77
79577;BME280;69045;48.136;11.386;2023-04-25T01:21:40;94686.53;;;11.75;57.26
79577;BME280;69045;48.136;11.386;2023-04-25T01:24:09;94673.91;;;11.72;57.12
79577;BME280;69045;48.136;11.386;2023-04-25T01:26:38;94679.94;;;11.73;57.03
79577;BME280;69045;48.136;11.386;2023-04-25T01:29:11;94675.16;;;11.70;56.70
79577;BME280;69045;48.136;11.386;2023-04-25T01:31:40;94673.81;;;11.67;56.37
79577;BME280;69045;48.136;11.386;2023-04-25T01:34:09;94667.00;;;11.66;56.69
79577;BME280;69045;48.136;11.386;2023-04-25T01:36:38;94676.13;;;11.64;56.21
79577;BME280;69045;48.136;11.386;2023-04-25T01:39:07;94671.34;;;11.61;57.11
79577;BME280;69045;48.136;11.386;2023-04-25T01:41:36;94669.19;;;11.58;57.52
79577;BME280;69045;48.136;11.386;2023-04-25T01:44:05;94669.34;;;11.51;56.74
79577;BME280;69045;48.136;11.386;2023-04-25T01:46:34;94668.00;;;11.48;57.13
79577;BME280;69045;48.136;11.386;2023-04-25T01:49:04;94666.19;;;11.49;57.83
79577;BME280;69045;48.136;11.386;2023-04-25T01:51:32;94667.91;;;11.43;58.12
79577;BME280;69045;48.136;11.386;2023-04-25T01:54:01;94669.19;;;11.41;57.35
79577;BME280;69045;48.136;11.386;2023-04-25T01:56:32;94663.63;;;11.37;56.96
79577;BME280;69045;48.136;11.386;2023-04-25T01:59:01;94661.16;;;11.31;57.40
79577;BME280;69045;48.136;11.386;2023-04-25T02:01:48;94656.31;;;11.23;58.34
79577;BME280;69045;48.136;11.386;2023-04-25T02:04:24;94654.16;;;11.19;58.02
79577;BME280;69045;48.136;11.386;2023-04-25T02:06:53;94672.41;;;11.14;57.58
79577;BME280;69045;48.136;11.386;2023-04-25T02:09:22;94672.41;;;11.14;57.53
79577;BME280;69045;48.136;11.386;2023-04-25T02:11:56;94672.66;;;11.13;57.42
79577;BME280;69045;48.136;11.386;2023-04-25T02:14:53;94675.44;;;11.06;57.59
79577;BME280;69045;48.136;11.386;2023-04-25T02:17:33;94664.59;;;11.03;57.56
79577;BME280;69045;48.136;11.386;2023-04-25T02:20:01;94672.47;;;11.03;57.90
79577;BME280;69045;48.136;11.386;2023-04-25T02:22:30;94668.25;;;11.02;57.15
79577;BME280;69045;48.136;11.386;2023-04-25T02:24:58;94667.72;;;11.00;57.09
79577;BME280;69045;48.136;11.386;2023-04-25T02:27:28;94672.94;;;11.00;57.22
79577;BME280;69045;48.136;11.386;2023-04-25T02:29:56;94662.47;;;11.00;57.69
79577;BME280;69045;48.136;11.386;2023-04-25T02:32:24;94659.84;;;11.00;57.25
79577;BME280;69045;48.136;11.386;2023-04-25T02:34:53;94663.00;;;11.02;57.59
79577;BME280;69045;48.136;11.386;2023-04-25T02:37:22;94662.78;;;11.03;57.08
79577;BME280;69045;48.136;11.386;2023-04-25T02:39:50;94662.78;;;11.03;57.48
79577;BME280;69045;48.136;11.386;2023-04-25T02:42:20;94658.81;;;11.01;57.25
79577;BME280;69045;48.136;11.386;2023-04-25T02:44:50;94665.41;;;11.03;56.57
79577;BME280;69045;48.136;11.386;2023-04-25T02:47:20;94664.38;;;11.04;57.50
79577;BME280;69045;48.136;11.386;2023-04-25T02:49:49;94661.53;;;11.06;56.96
79577;BME280;69045;48.136;11.386;2023-04-25T02:52:18;94671.28;;;11.10;57.13
79577;BME280;69045;48.136;11.386;2023-04-25T02:54:53;94685.03;;;11.17;57.78
79577;BME280;69045;48.136;11.386;2023-04-25T02:57:21;94671.72;;;11.19;58.17
79577;BME280;69045;48.136;11.386;2023-04-25T02:59:51;94664.00;;;11.29;58.00
79577;BME280;69045;48.136;11.386;2023-04-25T03:02:19;94662.38;;;11.40;57.66
79577;BME280;69045;48.136;11.386;2023-04-25T03:04:47;94667.84;;;11.55;56.34
79577;BME280;69045;48.136;11.386;2023-04-25T03:07:16;94671.91;;;11.63;55.50
79577;BME280;69045;48.136;11.386;2023-04-25T03:09:47;94655.69;;;11.66;56.56
79577;BME280;69045;48.136;11.386;2023-04-25T03:12:16;94641.84;;;11.70;55.80
79577;BME280;69045;48.136;11.386;2023-04-25T03:14:44;94639.72;;;11.67;55.96
79577;BME280;69045;48.136;11.386;2023-04-25T03:17:14;94636.53;;;11.65;56.59
79577;BME280;69045;48.136;11.386;2023-04-25T03:19:42;94636.22;;;11.62;56.23
79577;BME280;69045;48.136;11.386;2023-04-25T03:22:11;94640.34;;;11.58;55.70
79577;BME280;69045;48.136;11.386;2023-04-25T03:24:39;94645.38;;;11.59;56.19
79577;BME280;69045;48.136;11.386;2023-04-25T03:27:08;94650.63;;;11.59;55.78
79577;BME280;69045;48.136;11.386;2023-04-25T03:29:36;94654.50;;;11.57;55.70
79577;BME280;69045;48.136;11.386;2023-04-25T03:32:05;94645.75;;;11.51;55.39
79577;BME280;69045;48.136;11.386;2023-04-25T03:34:35;94648.84;;;11.48;56.01
79577;BME280;69045;48.136;11.386;2023-04-25T03:37:03;94636.38;;;11.38;56.59
79577;BME280;69045;48.136;11.386;2023-04-25T03:39:36;94640.16;;;11.31;57.53
79577;BME280;69045;48.136;11.386;2023-04-25T03:42:06;94641.94;;;11.25;57.15
79577;BME280;69045;48.136;11.386;2023-04-25T03:44:34;94643.19;;;11.23;57.38
79577;BME280;69045;48.136;11.386;2023-04-25T03:47:04;94635.63;;;11.09;57.85
79577;BME280;69045;48.136;11.386;2023-04-25T03:49:36;94638.81;;;11.11;57.68
79577;BME280;69045;48.136;11.386;2023-04-25T03:52:05;94634.53;;;11.05;57.63
79577;BME280;69045;48.136;11.386;2023-04-25T03:54:37;94638.63;;;11.01;58.62
79577;BME280;69045;48.136;11.386;2023-04-25T03:57:09;94631.31;;;11.03;57.63
79577;BME280;69045;48.136;11.386;2023-04-25T03:59:39;94639.44;;;11.02;58.28
79577;BME280;69045;48.136;11.386;2023-04-25T04:02:10;94644.38;;;10.98;57.42
79577;BME280;69045;48.136;11.386;2023-04-25T04:04:41;94640.84;;;10.92;58.10
79577;BME280;69045;48.136;11.386;2023-04-25T04:07:12;94638.47;;;10.91;57.97
79577;BME280;69045;48.136;11.386;2023-04-25T04:09:43;94641.53;;;10.88;58.61
79577;BME280;69045;48.136;11.386;2023-04-25T04:12:18;94635.19;;;10.84;58.36
79577;BME280;69045;48.136;11.386;2023-04-25T04:14:46;94637.25;;;10.82;58.72
79577;BME280;69045;48.136;11.386;2023-04-25T04:17:15;94632.72;;;10.77;58.78
79577;BME280;69045;48.136;11.386;2023-04-25T04:19:45;94632.72;;;10.77;59.48
79577;BME280;69045;48.136;11.386;2023-04-25T04:22:17;94626.75;;;10.82;59.21
79577;BME280;69045;48.136;11.386;2023-04-25T04:24:47;94636.22;;;10.83;59.76
79577;BME280;69045;48.136;11.386;2023-04-25T04:27:27;94639.88;;;10.82;59.06
79577;BME280;69045;48.136;11.386;2023-04-25T04:30:12;94646.69;;;10.83;59.06
79577;BME280;69045;48.136;11.386;2023-04-25T04:32:57;94648.63;;;10.87;59.15
79577;BME280;69045;48.136;11.386;2023-04-25T04:35:27;94647.47;;;10.83;58.54
79577;BME280;69045;48.136;11.386;2023-04-25T04:37:55;94649.31;;;10.83;58.46
79577;BME280;69045;48.136;11.386;2023-04-25T04:40:27;94650.34;;;10.82;58.99
79577;BME280;69045;48.136;11.386;2023-04-25T04:43:18;94651.47;;;10.86;59.34
79577;BME280;69045;48.136;11.386;2023-04-25T04:46:07;94643.38;;;10.87;59.17
79577;BME280;69045;48.136;11.386;2023-04-25T04:49:00;94643.38;;;10.87;59.78
79577;BME280;69045;48.136;11.386;2023-04-25T04:52:00;94636.41;;;10.93;60.79
79577;BME280;69045;48.136;11.386;2023-04-25T04:55:00;94623.72;;;11.02;59.75
79577;BME280;69045;48.136;11.386;2023-04-25T04:57:39;94640.66;;;11.11;58.98
79577;BME280;69045;48.136;11.386;2023-04-25T05:00:18;94651.34;;;11.09;59.15
79577;BME280;69045;48.136;11.386;2023-04-25T05:03:13;94645.06;;;11.10;60.42
79577;BME280;69045;48.136;11.386;2023-04-25T05:06:02;94651.34;;;11.09;60.20
79577;BME280;69045;48.136;11.386;2023-04-25T05:08:40;94649.47;;;11.05;59.92
79577;BME280;69045;48.136;11.386;2023-04-25T05:11:28;94646.75;;;11.00;59.97
79577;BME280;69045;48.136;11.386;2023-04-25T05:14:22;94640.72;;;10.99;60.70
79577;BME280;69045;48.136;11.386;2023-04-25T05:17:13;94653.47;;;10.96;61.15
79577;BME280;69045;48.136;11.386;2023-04-25T05:20:07;94655.16;;;11.02;60.06
79577;BME280;69045;48.136;11.386;2023-04-25T05:22:59;94654.22;;;11.08;60.91
79577;BME280;69045;48.136;11.386;2023-04-25T05:25:45;94650.66;;;11.14;60.11
79577;BME280;69045;48.136;11.386;2023-04-25T05:28:33;94641.75;;;11.15;60.95
79577;BME280;69045;48.136;11.386;2023-04-25T05:31:21;94640.25;;;11.19;60.48
79577;BME280;69045;48.136;11.386;2023-04-25T05:33:58;94642.88;;;11.19;60.21
79577;BME280;69045;48.136;11.386;2023-04-25T05:36:38;94649.00;;;11.25;60.59
79577;BME280;69045;48.136;11.386;2023-04-25T05:39:06;94638.38;;;11.31;58.15
79577;BME280;69045;48.136;11.386;2023-04-25T05:42:06;94654.81;;;11.43;58.95
79577;BME280;69045;48.136;11.386;2023-04-25T05:44:57;94664.28;;;11.61;57.72
79577;BME280;69045;48.136;11.386;2023-04-25T05:47:51;94672.22;;;11.66;58.88
79577;BME280;69045;48.136;11.386;2023-04-25T05:50:26;94667.16;;;11.60;59.73
79577;BME280;69045;48.136;11.386;2023-04-25T05:53:00;94663.09;;;11.52;60.39
79577;BME280;69045;48.136;11.386;2023-04-25T05:55:32;94674.03;;;11.49;61.30
79577;BME280;69045;48.136;11.386;2023-04-25T05:58:09;94670.47;;;11.55;61.04
79577;BME280;69045;48.136;11.386;2023-04-25T06:00:37;94658.00;;;11.62;60.18
79577;BME280;69045;48.136;11.386;2023-04-25T06:03:08;94656.88;;;11.41;61.45
79577;BME280;69045;48.136;11.386;2023-04-25T06:05:37;94652.44;;;11.25;61.93
79577;BME280;69045;48.136;11.386;2023-04-25T06:08:06;94653.28;;;11.14;62.03
79577;BME280;69045;48.136;11.386;2023-04-25T06:10:34;94656.75;;;11.03;63.37
79577;BME280;69045;48.136;11.386;2023-04-25T06:13:04;94657.06;;;11.06;63.80
79577;BME280;69045;48.136;11.386;2023-04-25T06:15:35;94656.59;;;11.09;62.77
79577;BME280;69045;48.136;11.386;2023-04-25T06:18:04;94652.78;;;11.17;63.63
79577;BME280;69045;48.136;11.386;2023-04-25T06:20:34;94659.66;;;11.18;63.86
79577;BME280;69045;48.136;11.386;2023-04-25T06:23:02;94657.56;;;11.20;64.61
79577;BME280;69045;48.136;11.386;2023-04-25T06:25:40;94656.63;;;11.26;64.03
79577;BME280;69045;48.136;11.386;2023-04-25T06:28:09;94655.75;;;11.37;63.29
79577;BME280;69045;48.136;11.386;2023-04-25T06:30:39;94649.34;;;11.62;64.11
79577;BME280;69045;48.136;11.386;2023-04-25T06:33:11;94643.28;;;11.95;63.40
79577;BME280;69045;48.136;11.386;2023-04-25T06:35:40;94649.06;;;12.36;62.21
79577;BME280;69045;48.136;11.386;2023-04-25T06:38:11;94641.91;;;12.75;61.18
79577;BME280;69045;48.136;11.386;2023-04-25T06:40:44;94641.56;;;12.93;60.18
79577;BME280;69045;48.136;11.386;2023-04-25T06:43:13;94638.47;;;12.96;60.16
79577;BME280;69045;48.136;11.386;2023-04-25T06:45:49;94644.72;;;12.90;59.17
79577;BME280;69045;48.136;11.386;2023-04-25T06:48:19;94641.97;;;12.80;59.43
79577;BME280;69045;48.136;11.386;2023-04-25T06:50:49;94648.75;;;12.76;60.22
79577;BME280;69045;48.136;11.386;2023-04-25T06:53:18;94644.50;;;12.70;59.35
79577;BME280;69045;48.136;11.386;2023-04-25T06:55:51;94652.03;;;12.61;60.03
79577;BME280;69045;48.136;11.386;2023-04-25T06:58:21;94654.06;;;12.59;59.95
79577;BME280;69045;48.136;11.386;2023-04-25T07:01:07;94651.69;;;12.57;60.06
79577;BME280;69045;48.136;11.386;2023-04-25T07:03:36;94645.66;;;12.57;60.58
79577;BME280;69045;48.136;11.386;2023-04-25T07:06:10;94643.09;;;12.62;60.44
79577;BME280;69045;48.136;11.386;2023-04-25T07:08:38;94638.91;;;12.66;60.98
79577;BME280;69045;48.136;11.386;2023-04-25T07:11:08;94636.59;;;12.70;59.97
79577;BME280;69045;48.136;11.386;2023-04-25T07:13:36;94636.41;;;12.76;60.14
79577;BME280;69045;48.136;11.386;2023-04-25T07:16:05;94637.09;;;12.94;59.50
79577;BME280;69045;48.136;11.386;2023-04-25T07:18:36;94635.44;;;13.09;59.19
79577;BME280;69045;48.136;11.386;2023-04-25T07:21:04;94631.81;;;13.43;59.47
79577;BME280;69045;48.136;11.386;2023-04-25T07:23:34;94644.16;;;13.74;57.55
79577;BME280;69045;48.136;11.386;2023-04-25T07:26:08;94643.53;;;13.99;56.93
79577;BME280;69045;48.136;11.386;2023-04-25T07:28:44;94634.16;;;14.18;55.22
79577;BME280;69045;48.136;11.386;2023-04-25T07:31:12;94629.81;;;14.44;55.23
79577;BME280;69045;48.136;11.386;2023-04-25T07:33:44;94633.13;;;14.82;55.46
79577;BME280;69045;48.136;11.386;2023-04-25T07:36:13;94633.19;;;15.23;53.97
79577;BME280;69045;48.136;11.386;2023-04-25T07:42:01;94629.22;;;16.17;51.77
79577;BME280;69045;48.136;11.386;2023-04-25T07:44:30;94626.44;;;16.63;50.70
79577;BME280;69045;48.136;11.386;2023-04-25T07:47:05;94618.81;;;17.11;50.40
79577;BME280;69045;48.136;11.386;2023-04-25T07:49:37;94623.28;;;17.55;48.08
79577;BME280;69045;48.136;11.386;2023-04-25T07:52:06;94628.78;;;17.92;47.47
79577;BME280;69045;48.136;11.386;2023-04-25T07:54:35;94615.91;;;18.10;46.62
79577;BME280;69045;48.136;11.386;2023-04-25T07:57:11;94620.22;;;18.30;44.68
79577;BME280;69045;48.136;11.386;2023-04-25T07:59:41;94618.84;;;18.32;44.71
79577;BME280;69045;48.136;11.386;2023-04-25T08:02:09;94612.94;;;18.40;45.09
79577;BME280;69045;48.136;11.386;2023-04-25T08:04:39;94614.00;;;18.63;44.65
79577;BME280;69045;48.136;11.386;2023-04-25T08:07:11;94615.63;;;18.59;44.37
79577;BME280;69045;48.136;11.386;2023-04-25T08:09:50;94611.97;;;18.31;45.04
79577;BME280;69045;48.136;11.386;2023-04-25T08:12:24;94615.63;;;18.35;44.39
79577;BME280;69045;48.136;11.386;2023-04-25T08:14:52;94622.63;;;18.26;44.38
79577;BME280;69045;48.136;11.386;2023-04-25T08:17:23;94628.13;;;18.06;43.65
79577;BME280;69045;48.136;11.386;2023-04-25T08:19:53;94635.44;;;17.90;44.36
79577;BME280;69045;48.136;11.386;2023-04-25T08:22:29;94625.59;;;17.61;44.38
79577;BME280;69045;48.136;11.386;2023-04-25T08:25:25;94621.56;;;17.69;43.52
79577;BME280;69045;48.136;11.386;2023-04-25T08:27:54;94627.72;;;17.93;43.13
79577;BME280;69045;48.136;11.386;2023-04-25T08:30:24;94629.41;;;18.37;42.89
79577;BME280;69045;48.136;11.386;2023-04-25T08:32:54;94619.72;;;18.94;42.53
79577;BME280;69045;48.136;11.386;2023-04-25T08:35:44;94626.81;;;19.55;39.95
79577;BME280;69045;48.136;11.386;2023-04-25T08:38:13;94626.88;;;20.02;39.39
79577;BME280;69045;48.136;11.386;2023-04-25T08:40:44;94624.56;;;20.41;38.70
79577;BME280;69045;48.136;11.386;2023-04-25T08:43:19;94626.94;;;20.70;37.50
79577;BME280;69045;48.136;11.386;2023-04-25T08:45:47;94631.34;;;21.03;37.59
79577;BME280;69045;48.136;11.386;2023-04-25T08:48:28;94629.63;;;21.34;35.47
79577;BME280;69045;48.136;11.386;2023-04-25T08:51:02;94630.38;;;21.48;36.62
79577;BME280;69045;48.136;11.386;2023-04-25T08:53:32;94636.66;;;21.52;34.69
79577;BME280;69045;48.136;11.386;2023-04-25T08:56:06;94640.78;;;21.22;35.91
79577;BME280;69045;48.136;11.386;2023-04-25T08:58:36;94644.00;;;21.69;34.90
79577;BME280;69045;48.136;11.386;2023-04-25T09:01:05;94629.91;;;21.69;34.61
79577;BME280;69045;48.136;11.386;2023-04-25T09:03:43;94632.91;;;21.76;34.31
79577;BME280;69045;48.136;11.386;2023-04-25T09:06:13;94636.84;;;21.78;34.45
79577;BME280;69045;48.136;11.386;2023-04-25T09:08:43;94633.38;;;22.00;34.23
79577;BME280;69045;48.136;11.386;2023-04-25T09:11:12;94631.75;;;22.13;34.65
79577;BME280;69045;48.136;11.386;2023-04-25T09:13:41;94637.31;;;22.25;33.90
79577;BME280;69045;48.136;11.386;2023-04-25T09:16:22;94634.69;;;22.34;33.95
79577;BME280;69045;48.136;11.386;2023-04-25T09:19:21;94635.34;;;22.40;32.97
79577;BME280;69045;48.136;11.386;2023-04-25T09:22:07;94639.56;;;22.80;33.16
79577;BME280;69045;48.136;11.386;2023-04-25T09:24:38;94643.88;;;22.90;32.14
79577;BME280;69045;48.136;11.386;2023-04-25T09:27:09;94638.69;;;22.94;31.93
79577;BME280;69045;48.136;11.386;2023-04-25T09:29:40;94643.47;;;23.31;31.54
79577;BME280;69045;48.136;11.386;2023-04-25T09:32:11;94653.66;;;23.21;30.48
79577;BME280;69045;48.136;11.386;2023-04-25T09:34:42;94654.00;;;22.71;30.29
79577;BME280;69045;48.136;11.386;2023-04-25T09:37:21;94648.44;;;21.96;31.85
79577;BME280;69045;48.136;11.386;2023-04-25T09:40:17;94660.47;;;21.49;32.55
79577;BME280;69045;48.136;11.386;2023-04-25T09:43:10;94650.13;;;20.70;34.40
79577;BME280;69045;48.136;11.386;2023-04-25T09:45:43;94656.88;;;20.35;34.82
79577;BME280;69045;48.136;11.386;2023-04-25T09:48:17;94655.56;;;20.18;34.73
79577;BME280;69045;48.136;11.386;2023-04-25T09:51:04;94649.91;;;19.93;34.75
79577;BME280;69045;48.136;11.386;2023-04-25T09:53:36;94646.47;;;19.92;36.22
79577;BME280;69045;48.136;11.386;2023-04-25T09:56:38;94647.41;;;20.29;36.46
79577;BME280;69045;48.136;11.386;2023-04-25T09:59:08;94639.69;;;20.74;35.42
79577;BME280;69045;48.136;11.386;2023-04-25T10:01:39;94640.16;;;21.25;33.72
79577;BME280;69045;48.136;11.386;2023-04-25T10:04:23;94645.63;;;21.57;32.94
79577;BME280;69045;48.136;11.386;2023-04-25T10:07:07;94637.91;;;21.33;32.88
79577;BME280;69045;48.136;11.386;2023-04-25T10:09:39;94648.97;;;21.12;33.05
79577;BME280;69045;48.136;11.386;2023-04-25T10:12:08;94643.41;;;20.59;32.52
79577;BME280;69045;48.136;11.386;2023-04-25T10:14:37;94651.84;;;20.20;33.25
79577;BME280;69045;48.136;11.386;2023-04-25T10:17:07;94655.13;;;19.98;34.74
79577;BME280;69045;48.136;11.386;2023-04-25T10:19:39;94669.38;;;19.50;36.93
79577;BME280;69045;48.136;11.386;2023-04-25T10:22:12;94687.91;;;18.75;37.94
79577;BME280;69045;48.136;11.386;2023-04-25T10:24:46;94694.75;;;17.94;39.26
79577;BME280;69045;48.136;11.386;2023-04-25T10:27:14;94689.63;;;17.29;40.07
79577;BME280;69045;48.136;11.386;2023-04-25T10:29:43;94688.31;;;16.67;42.78
79577;BME280;69045;48.136;11.386;2023-04-25T10:32:11;94698.94;;;16.42;44.10
79577;BME280;69045;48.136;11.386;2023-04-25T10:34:42;94696.88;;;16.08;46.86
79577;BME280;69045;48.136;11.386;2023-04-25T10:37:13;94701.91;;;15.94;47.21
79577;BME280;69045;48.136;11.386;2023-04-25T10:39:43;94692.16;;;15.79;47.71
79577;BME280;69045;48.136;11.386;2023-04-25T10:42:13;94699.00;;;15.70;48.19
79577;BME280;69045;48.136;11.386;2023-04-25T10:45:01;94709.84;;;15.79;48.47
79577;BME280;69045;48.136;11.386;2023-04-25T10:47:35;94711.44;;;15.85;48.94
79577;BME280;69045;48.136;11.386;2023-04-25T10:50:06;94707.19;;;15.74;48.88
79577;BME280;69045;48.136;11.386;2023-04-25T10:52:38;94712.47;;;15.74;49.47
79577;BME280;69045;48.136;11.386;2023-04-25T10:55:09;94709.03;;;15.83;47.95
79577;BME280;69045;48.136;11.386;2023-04-25T10:57:39;94710.66;;;16.00;46.44
79577;BME280;69045;48.136;11.386;2023-04-25T11:00:13;94718.56;;;16.15;46.01
79577;BME280;69045;48.136;11.386;2023-04-25T11:02:44;94720.66;;;16.33;43.98
79577;BME280;69045;48.136;11.386;2023-04-25T11:05:23;94726.13;;;16.57;43.67
79577;BME280;69045;48.136;11.386;2023-04-25T11:07:57;94729.03;;;16.71;42.98
79577;BME280;69045;48.136;11.386;2023-04-25T11:10:35;94724.78;;;16.65;42.45
79577;BME280;69045;48.136;11.386;2023-04-25T11:13:05;94726.94;;;16.63;43.73
79577;BME280;69045;48.136;11.386;2023-04-25T11:15:33;94734.84;;;16.63;42.96
79577;BME280;69045;48.136;11.386;2023-04-25T11:18:01;94732.53;;;16.41;42.36
79577;BME280;69045;48.136;11.386;2023-04-25T11:20:29;94732.81;;;16.14;43.28
79577;BME280;69045;48.136;11.386;2023-04-25T11:22:58;94738.63;;;15.91;43.60
79577;BME280;69045;48.136;11.386;2023-04-25T11:25:27;94746.78;;;15.64;44.18
79577;BME280;69045;48.136;11.386;2023-04-25T11:27:59;94756.25;;;15.54;44.36
79577;BME280;69045;48.136;11.386;2023-04-25T11:30:28;94765.19;;;15.38;45.85
79577;BME280;69045;48.136;11.386;2023-04-25T11:32:57;94779.13;;;15.18;47.28
79577;BME280;69045;48.136;11.386;2023-04-25T11:35:26;94780.34;;;15.00;49.36
79577;BME280;69045;48.136;11.386;2023-04-25T11:37:56;94773.97;;;14.86;49.78
79577;BME280;69045;48.136;11.386;2023-04-25T11:40:24;94775.75;;;14.70;49.91
79577;BME280;69045;48.136;11.386;2023-04-25T11:42:53;94776.03;;;14.42;50.02
79577;BME280;69045;48.136;11.386;2023-04-25T11:45:23;94765.91;;;14.24;50.93
79577;BME280;69045;48.136;11.386;2023-04-25T11:47:52;94772.69;;;14.14;50.97
79577;BME280;69045;48.136;11.386;2023-04-25T11:50:20;94783.41;;;14.08;50.88
79577;BME280;69045;48.136;11.386;2023-04-25T11:52:49;94785.19;;;13.97;51.50
79577;BME280;69045;48.136;11.386;2023-04-25T11:55:19;94784.59;;;13.90;51.50
79577;BME280;69045;48.136;11.386;2023-04-25T11:57:49;94788.91;;;13.74;52.00
79577;BME280;69045;48.136;11.386;2023-04-25T12:00:19;94797.78;;;13.63;52.87
79577;BME280;69045;48.136;11.386;2023-04-25T12:02:52;94793.31;;;13.63;53.86
79577;BME280;69045;48.136;11.386;2023-04-25T12:05:24;94791.22;;;13.65;53.44
79577;BME280;69045;48.136;11.386;2023-04-25T12:08:10;94803.84;;;13.63;53.21
79577;BME280;69045;48.136;11.386;2023-04-25T12:10:41;94799.91;;;13.66;53.68
79577;BME280;69045;48.136;11.386;2023-04-25T12:13:21;94802.53;;;13.66;54.18
79577;BME280;69045;48.136;11.386;2023-04-25T12:15:50;94793.84;;;13.65;54.63
79577;BME280;69045;48.136;11.386;2023-04-25T12:18:22;94793.56;;;13.62;55.60
79577;BME280;69045;48.136;11.386;2023-04-25T12:20:52;94798.06;;;13.66;54.39
79577;BME280;69045;48.136;11.386;2023-04-25T12:23:28;94788.53;;;13.60;54.13
79577;BME280;69045;48.136;11.386;2023-04-25T12:26:00;94793.09;;;13.43;54.43
79577;BME280;69045;48.136;11.386;2023-04-25T12:28:32;94804.34;;;13.38;54.36
79577;BME280;69045;48.136;11.386;2023-04-25T12:31:02;94799.59;;;13.35;54.89
79577;BME280;69045;48.136;11.386;2023-04-25T12:33:34;94795.50;;;13.23;54.78
79577;BME280;69045;48.136;11.386;2023-04-25T12:36:04;94795.94;;;13.20;55.32
79577;BME280;69045;48.136;11.386;2023-04-25T12:38:37;94793.81;;;13.17;56.13
79577;BME280;69045;48.136;11.386;2023-04-25T12:41:06;94802.75;;;13.16;55.66
79577;BME280;69045;48.136;11.386;2023-04-25T12:43:35;94802.03;;;13.20;56.60
79577;BME280;69045;48.136;11.386;2023-04-25T12:46:04;94806.91;;;13.33;56.58
79577;BME280;69045;48.136;11.386;2023-04-25T12:48:34;94812.50;;;13.37;55.29
79577;BME280;69045;48.136;11.386;2023-04-25T12:51:02;94808.31;;;13.41;56.15
79577;BME280;69045;48.136;11.386;2023-04-25T12:53:31;94816.06;;;13.53;55.90
79577;BME280;69045;48.136;11.386;2023-04-25T12:56:01;94812.19;;;13.82;58.57
79577;BME280;69045;48.136;11.386;2023-04-25T12:58:29;94809.31;;;14.16;54.85
79577;BME280;69045;48.136;11.386;2023-04-25T13:01:00;94814.75;;;14.73;56.53
79577;BME280;69045;48.136;11.386;2023-04-25T13:03:28;94814.22;;;15.24;52.22
79577;BME280;69045;48.136;11.386;2023-04-25T13:05:58;94819.47;;;15.14;52.14
79577;BME280;69045;48.136;11.386;2023-04-25T13:08:26;94821.53;;;15.07;52.96
79577;BME280;69045;48.136;11.386;2023-04-25T13:10:54;94823.53;;;14.89;52.47
79577;BME280;69045;48.136;11.386;2023-04-25T13:13:23;94823.47;;;14.74;52.95
79577;BME280;69045;48.136;11.386;2023-04-25T13:15:51;94819.38;;;14.51;52.97
79577;BME280;69045;48.136;11.386;2023-04-25T13:18:19;94815.56;;;14.42;53.78
79577;BME280;69045;48.136;11.386;2023-04-25T13:20:48;94828.13;;;14.30;53.01
79577;BME280;69045;48.136;11.386;2023-04-25T13:23:18;94828.16;;;14.03;53.75
79577;BME280;69045;48.136;11.386;2023-04-25T13:25:46;94837.22;;;13.85;54.26